createdAt,value
2023-04-18T00:00:31.220Z,98.56
2023-04-18T00:02:59.187Z,98.91
2023-04-18T00:05:27.972Z,98.64
2023-04-18T00:07:55.253Z,98.87
2023-04-18T00:10:22.549Z,98.82
2023-04-18T00:12:49.446Z,99.11
2023-04-18T00:15:16.402Z,99.88
2023-04-18T00:17:43.610Z,99.25
2023-04-18T00:20:11.334Z,99.67
2023-04-18T00:22:42.641Z,99.56
2023-04-18T00:25:11.154Z,98.62
2023-04-18T00:27:39.146Z,98.39
2023-04-18T00:30:06.881Z,98.41
2023-04-18T00:32:39.457Z,97.96
2023-04-18T00:35:06.795Z,98.18
2023-04-18T00:37:34.093Z,98.12
2023-04-18T00:40:01.062Z,98.54
2023-04-18T00:42:29.477Z,98.15
2023-04-18T00:44:56.413Z,98.30
2023-04-18T00:47:23.541Z,98.79
2023-04-18T00:49:50.625Z,98.72
2023-04-18T00:52:18.851Z,98.51
2023-04-18T00:54:47.363Z,98.50
2023-04-18T00:57:14.636Z,99.21
2023-04-18T00:59:42.412Z,99.51
2023-04-18T01:02:09.411Z,98.96
2023-04-18T01:04:37.361Z,98.86
2023-04-18T01:07:04.831Z,98.55
2023-04-18T01:09:31.834Z,97.85
2023-04-18T01:11:58.772Z,97.61
2023-04-18T01:14:25.828Z,96.91
2023-04-18T01:16:53.285Z,96.64
2023-04-18T01:19:20.173Z,96.50
2023-04-18T01:21:47.347Z,96.67
2023-04-18T01:24:16.171Z,97.08
2023-04-18T01:26:47.767Z,97.39
2023-04-18T01:29:15.337Z,97.95
2023-04-18T01:31:42.322Z,97.36
2023-04-18T01:34:09.598Z,98.12
2023-04-18T01:36:39.070Z,97.86
2023-04-18T01:39:07.147Z,98.59
2023-04-18T01:41:34.167Z,98.10
2023-04-18T01:44:01.679Z,98.65
2023-04-18T01:46:29.083Z,97.62
2023-04-18T01:48:57.273Z,97.52
2023-04-18T01:51:24.234Z,97.94
2023-04-18T01:53:54.313Z,99.22
2023-04-18T01:56:21.313Z,99.30
2023-04-18T01:58:48.284Z,100.00
2023-04-18T02:01:15.413Z,100.00
2023-04-18T02:03:42.542Z,100.00
2023-04-18T02:06:10.173Z,99.99
2023-04-18T02:08:37.178Z,100.00
2023-04-18T02:11:06.661Z,100.00
2023-04-18T02:13:33.698Z,100.00
2023-04-18T02:16:00.916Z,99.88
2023-04-18T02:18:47.781Z,100.00
2023-04-18T02:21:14.607Z,100.00
2023-04-18T02:23:41.601Z,100.00
2023-04-18T02:26:08.542Z,100.00
2023-04-18T02:28:38.964Z,100.00
2023-04-18T02:31:06.431Z,100.00
2023-04-18T02:33:35.001Z,100.00
2023-04-18T02:36:01.953Z,100.00
2023-04-18T02:38:28.896Z,100.00
2023-04-18T02:40:56.139Z,100.00
2023-04-18T02:43:23.231Z,100.00
2023-04-18T02:45:50.717Z,100.00
2023-04-18T02:48:17.807Z,100.00
2023-04-18T02:50:46.059Z,100.00
2023-04-18T02:53:13.440Z,100.00
2023-04-18T02:55:52.308Z,100.00
2023-04-18T02:58:21.225Z,100.00
2023-04-18T03:01:06.858Z,100.00
2023-04-18T03:04:03.311Z,100.00
2023-04-18T03:06:40.285Z,100.00
2023-04-18T03:09:07.276Z,100.00
2023-04-18T03:11:37.338Z,100.00
2023-04-18T03:14:05.241Z,100.00
2023-04-18T03:16:48.966Z,100.00
2023-04-18T03:19:21.596Z,100.00
2023-04-18T03:21:49.879Z,100.00
2023-04-18T03:24:17.300Z,100.00
2023-04-18T03:26:48.740Z,100.00
2023-04-18T03:29:18.109Z,100.00
2023-04-18T03:31:46.725Z,100.00
2023-04-18T03:34:13.878Z,100.00
2023-04-18T03:36:41.290Z,100.00
2023-04-18T03:39:08.966Z,100.00
2023-04-18T03:41:35.970Z,100.00
2023-04-18T03:44:03.998Z,100.00
2023-04-18T03:46:35.157Z,100.00
2023-04-18T03:49:03.271Z,100.00
2023-04-18T03:51:41.724Z,99.48
2023-04-18T03:54:08.822Z,99.51
2023-04-18T03:56:36.115Z,99.28
2023-04-18T03:59:03.133Z,99.05
2023-04-18T04:01:30.791Z,98.23
2023-04-18T04:03:57.858Z,98.56
2023-04-18T04:06:26.172Z,98.86
2023-04-18T04:08:53.365Z,98.25
2023-04-18T04:11:24.348Z,97.81
2023-04-18T04:13:51.723Z,97.86
2023-04-18T04:16:23.117Z,97.21
2023-04-18T04:18:52.429Z,96.96
2023-04-18T04:21:24.081Z,97.05
2023-04-18T04:23:53.178Z,96.58
2023-04-18T04:26:35.696Z,96.23
2023-04-18T04:29:13.906Z,96.21
2023-04-18T04:31:42.648Z,96.20
2023-04-18T04:34:09.606Z,96.03
2023-04-18T04:36:36.732Z,95.58
2023-04-18T04:39:06.693Z,95.70
2023-04-18T04:41:47.228Z,95.45
2023-04-18T04:44:17.734Z,95.61
2023-04-18T04:46:44.977Z,94.95
2023-04-18T04:49:18.889Z,94.83
2023-04-18T04:51:45.815Z,94.87
2023-04-18T04:54:13.138Z,94.22
2023-04-18T04:56:40.955Z,93.97
2023-04-18T04:59:07.990Z,93.93
2023-04-18T05:01:39.635Z,93.82
2023-04-18T05:04:06.826Z,93.47
2023-04-18T05:06:34.012Z,93.10
2023-04-18T05:09:01.213Z,94.25
2023-04-18T05:11:28.386Z,94.06
2023-04-18T05:13:55.476Z,93.13
2023-04-18T05:16:22.659Z,93.49
2023-04-18T05:18:49.643Z,92.77
2023-04-18T05:21:16.676Z,92.49
2023-04-18T05:23:43.613Z,91.87
2023-04-18T05:26:10.698Z,92.55
2023-04-18T05:28:37.738Z,91.86
2023-04-18T05:31:04.780Z,92.31
2023-04-18T05:33:31.895Z,92.16
2023-04-18T05:35:59.213Z,92.45
2023-04-18T05:38:26.359Z,92.00
2023-04-18T05:40:56.043Z,90.87
2023-04-18T05:43:23.548Z,91.04
2023-04-18T05:45:52.516Z,91.92
2023-04-18T05:48:19.801Z,91.61
2023-04-18T05:50:46.895Z,91.52
2023-04-18T05:53:13.879Z,91.05
2023-04-18T05:55:41.008Z,91.07
2023-04-18T05:58:08.097Z,90.38
2023-04-18T06:00:35.229Z,89.92
2023-04-18T06:03:02.835Z,88.27
2023-04-18T06:05:30.623Z,87.86
2023-04-18T06:07:57.923Z,87.24
2023-04-18T06:10:24.917Z,87.55
2023-04-18T06:12:51.971Z,88.13
2023-04-18T06:15:19.129Z,88.70
2023-04-18T06:17:46.267Z,89.60
2023-04-18T06:20:13.593Z,90.88
2023-04-18T06:26:37.822Z,89.09
2023-04-18T06:29:04.773Z,87.58
2023-04-18T06:31:31.775Z,86.05
2023-04-18T06:33:58.833Z,85.78
2023-04-18T06:36:27.579Z,84.65
2023-04-18T06:38:54.702Z,84.53
2023-04-18T06:41:21.633Z,84.14
2023-04-18T06:44:02.224Z,83.38
2023-04-18T06:46:31.394Z,81.90
2023-04-18T06:48:58.755Z,82.66
2023-04-18T06:51:25.910Z,81.35
2023-04-18T06:53:53.758Z,81.10
2023-04-18T06:56:21.429Z,82.23
2023-04-18T06:58:48.959Z,82.34
2023-04-18T07:01:16.154Z,83.51
2023-04-18T07:03:43.277Z,85.25
2023-04-18T07:06:11.113Z,84.96
2023-04-18T07:08:38.596Z,84.52
2023-04-18T07:11:06.655Z,84.65
2023-04-18T07:13:33.689Z,84.03
2023-04-18T07:16:01.591Z,85.79
2023-04-18T07:18:37.433Z,84.09
2023-04-18T07:21:09.127Z,84.70
2023-04-18T07:23:36.668Z,82.81
2023-04-18T07:26:05.785Z,82.73
2023-04-18T07:28:33.258Z,82.10
2023-04-18T07:31:01.302Z,82.34
2023-04-18T07:33:31.770Z,81.76
2023-04-18T07:36:01.748Z,82.96
2023-04-18T07:38:31.470Z,81.32
2023-04-18T07:41:02.179Z,80.98
2023-04-18T07:43:29.405Z,81.60
2023-04-18T07:45:56.538Z,80.39
2023-04-18T07:48:25.293Z,79.63
2023-04-18T07:50:53.404Z,79.73
2023-04-18T07:53:30.173Z,78.42
2023-04-18T07:56:08.586Z,78.22
2023-04-18T07:58:36.250Z,79.19
2023-04-18T08:01:03.369Z,78.58
2023-04-18T08:03:30.569Z,78.79
2023-04-18T08:05:57.696Z,78.92
2023-04-18T08:08:24.638Z,77.90
2023-04-18T08:10:51.609Z,78.31
2023-04-18T08:13:18.679Z,77.44
2023-04-18T08:15:46.616Z,77.37
2023-04-18T08:18:13.658Z,76.02
2023-04-18T08:20:41.032Z,75.36
2023-04-18T08:23:11.299Z,73.76
2023-04-18T08:25:39.987Z,72.26
2023-04-18T08:28:07.271Z,71.95
2023-04-18T08:30:34.524Z,72.13
2023-04-18T08:33:01.662Z,72.31
2023-04-18T08:35:28.918Z,72.00
2023-04-18T08:38:14.773Z,70.76
2023-04-18T08:40:43.574Z,69.55
2023-04-18T08:43:14.127Z,70.24
2023-04-18T08:45:45.843Z,69.75
2023-04-18T08:48:14.168Z,70.80
2023-04-18T08:50:42.706Z,72.17
2023-04-18T08:53:10.600Z,71.20
2023-04-18T08:55:37.759Z,70.57
2023-04-18T08:58:06.931Z,69.46
2023-04-18T09:00:34.313Z,68.72
2023-04-18T09:03:03.019Z,68.38
2023-04-18T09:05:30.305Z,67.93
2023-04-18T09:07:57.531Z,68.46
2023-04-18T09:10:28.714Z,69.05
2023-04-18T09:12:57.840Z,69.03
2023-04-18T09:15:29.481Z,69.33
2023-04-18T09:17:59.271Z,69.12
2023-04-18T09:20:41.553Z,70.06
2023-04-18T09:23:11.517Z,70.40
2023-04-18T09:25:44.438Z,71.16
2023-04-18T09:28:33.469Z,69.64
2023-04-18T09:31:04.459Z,69.47
2023-04-18T09:33:37.193Z,68.95
2023-04-18T09:36:19.308Z,69.96
2023-04-18T09:38:48.406Z,69.12
2023-04-18T09:41:19.944Z,69.15
2023-04-18T09:43:49.302Z,68.60
2023-04-18T09:46:17.900Z,67.84
2023-04-18T09:48:45.107Z,67.65
2023-04-18T09:51:15.749Z,68.52
2023-04-18T09:53:44.998Z,69.48
2023-04-18T09:56:24.560Z,69.91
2023-04-18T09:58:57.231Z,69.06
2023-04-18T10:01:28.504Z,69.67
2023-04-18T10:03:57.348Z,69.45
2023-04-18T10:06:27.418Z,69.56
2023-04-18T10:08:55.142Z,68.77
2023-04-18T10:11:24.296Z,69.13
2023-04-18T10:13:56.000Z,70.81
2023-04-18T10:16:23.871Z,71.28
2023-04-18T10:18:51.581Z,73.23
2023-04-18T10:21:18.472Z,73.07
2023-04-18T10:23:48.877Z,74.88
2023-04-18T10:26:16.416Z,75.75
2023-04-18T10:28:57.934Z,75.72
2023-04-18T10:31:27.225Z,76.95
2023-04-18T10:36:30.266Z,77.12
2023-04-18T10:39:05.127Z,75.45
2023-04-18T10:41:33.842Z,75.97
2023-04-18T10:44:11.497Z,74.99
2023-04-18T10:46:52.075Z,75.67
2023-04-18T10:49:20.165Z,73.94
2023-04-18T10:51:49.722Z,74.48
2023-04-18T10:54:22.621Z,74.70
2023-04-18T10:56:56.967Z,76.14
2023-04-18T10:59:26.713Z,77.23
2023-04-18T11:01:57.431Z,77.85
2023-04-18T11:04:25.810Z,80.08
2023-04-18T11:06:58.493Z,83.02
2023-04-18T11:09:25.751Z,85.94
2023-04-18T11:12:07.156Z,88.82
2023-04-18T11:14:45.634Z,86.91
2023-04-18T11:17:20.970Z,87.97
2023-04-18T11:19:48.666Z,89.75
2023-04-18T11:22:17.043Z,89.03
2023-04-18T11:24:44.798Z,87.63
2023-04-18T11:27:12.763Z,85.05
2023-04-18T11:29:39.756Z,84.71
2023-04-18T11:32:08.323Z,81.53
2023-04-18T11:34:38.407Z,81.15
2023-04-18T11:37:08.679Z,80.84
2023-04-18T11:39:41.190Z,79.56
2023-04-18T11:42:08.985Z,79.72
2023-04-18T11:44:39.720Z,79.33
2023-04-18T11:47:23.692Z,77.71
2023-04-18T11:50:01.012Z,77.25
2023-04-18T11:52:34.059Z,76.57
2023-04-18T11:55:25.007Z,75.28
2023-04-18T11:58:00.394Z,76.19
2023-04-18T12:00:31.783Z,77.67
2023-04-18T12:03:00.004Z,77.31
2023-04-18T12:05:29.394Z,77.38
2023-04-18T12:08:05.106Z,77.38
2023-04-18T12:10:32.472Z,76.81
2023-04-18T12:13:00.172Z,76.85
2023-04-18T12:15:29.273Z,76.10
2023-04-18T12:18:01.570Z,75.55
2023-04-18T12:20:52.622Z,75.09
2023-04-18T12:23:37.287Z,75.20
2023-04-18T12:26:14.580Z,73.74
2023-04-18T12:28:45.703Z,74.46
2023-04-18T12:31:13.057Z,74.79
2023-04-18T12:33:40.276Z,73.04
2023-04-18T12:36:11.197Z,72.13
2023-04-18T12:38:38.162Z,71.86
2023-04-18T12:41:05.660Z,71.17
2023-04-18T12:43:32.641Z,70.01
2023-04-18T12:46:00.058Z,69.87
2023-04-18T12:48:27.167Z,69.55
2023-04-18T12:50:54.336Z,70.50
2023-04-18T12:53:21.361Z,70.28
2023-04-18T12:55:48.278Z,70.55
2023-04-18T12:58:18.575Z,70.26
2023-04-18T13:00:45.989Z,70.31
2023-04-18T13:03:13.595Z,69.99
2023-04-18T13:05:41.156Z,68.80
2023-04-18T13:08:17.016Z,69.27
2023-04-18T13:10:48.047Z,70.00
2023-04-18T13:13:15.088Z,70.12
2023-04-18T13:15:42.580Z,69.13
2023-04-18T13:18:09.634Z,69.00
2023-04-18T13:20:36.763Z,67.37
2023-04-18T13:23:03.952Z,66.63
2023-04-18T13:25:31.388Z,66.29
2023-04-18T13:27:58.644Z,65.83
2023-04-18T13:30:26.060Z,65.75
2023-04-18T13:32:53.137Z,65.38
2023-04-18T13:35:20.282Z,64.76
2023-04-18T13:37:47.362Z,64.86
2023-04-18T13:46:36.663Z,69.23
2023-04-18T13:49:03.677Z,70.33
2023-04-18T13:51:31.137Z,70.03
2023-04-18T13:54:00.280Z,72.34
2023-04-18T13:56:28.215Z,76.17
2023-04-18T13:58:55.749Z,76.55
2023-04-18T14:01:22.812Z,75.98
2023-04-18T14:03:50.182Z,72.46
2023-04-18T14:06:17.494Z,69.22
2023-04-18T14:08:44.476Z,68.75
2023-04-18T14:11:11.452Z,70.29
2023-04-18T14:13:38.608Z,70.16
2023-04-18T14:16:06.736Z,70.19
2023-04-18T14:18:33.780Z,70.61
2023-04-18T14:21:01.170Z,70.84
2023-04-18T14:23:28.153Z,69.67
2023-04-18T14:25:55.652Z,68.49
2023-04-18T14:28:24.958Z,68.16
2023-04-18T14:30:52.210Z,67.84
2023-04-18T14:33:19.309Z,67.37
2023-04-18T14:35:46.272Z,67.47
2023-04-18T14:38:13.315Z,67.64
2023-04-18T14:40:40.303Z,67.59
2023-04-18T14:43:07.374Z,66.81
2023-04-18T14:45:34.494Z,66.81
2023-04-18T14:48:01.653Z,65.64
2023-04-18T14:50:28.745Z,65.83
2023-04-18T14:52:55.826Z,66.43
2023-04-18T14:55:22.804Z,66.13
2023-04-18T14:57:49.884Z,64.32
2023-04-18T15:00:17.172Z,64.19
2023-04-18T15:02:44.454Z,64.10
2023-04-18T15:05:12.620Z,63.69
2023-04-18T15:07:40.726Z,63.44
2023-04-18T15:10:08.525Z,62.99
2023-04-18T15:12:35.998Z,62.36
2023-04-18T15:15:03.216Z,62.14
2023-04-18T15:17:31.414Z,63.53
2023-04-18T15:20:01.472Z,62.10
2023-04-18T15:22:29.135Z,61.37
2023-04-18T15:24:59.681Z,61.43
2023-04-18T15:27:27.794Z,62.81
2023-04-18T15:29:58.146Z,62.17
2023-04-18T15:32:26.694Z,62.71
2023-04-18T15:34:53.881Z,61.69
2023-04-18T15:41:03.262Z,63.17
2023-04-18T15:43:30.672Z,62.90
2023-04-18T15:45:58.026Z,62.74
2023-04-18T15:48:25.288Z,62.69
2023-04-18T15:50:52.387Z,64.09
2023-04-18T15:53:19.714Z,63.70
2023-04-18T15:55:46.987Z,63.72
2023-04-18T15:58:14.026Z,63.16
2023-04-18T16:00:41.058Z,63.33
2023-04-18T16:03:10.480Z,63.24
2023-04-18T16:05:37.539Z,63.57
2023-04-18T16:08:04.653Z,63.40
2023-04-18T16:10:31.734Z,63.73
2023-04-18T16:12:59.512Z,63.24
2023-04-18T16:15:26.566Z,63.06
2023-04-18T16:17:53.786Z,63.13
2023-04-18T16:20:20.880Z,62.98
2023-04-18T16:22:48.228Z,63.48
2023-04-18T16:25:15.216Z,63.78
2023-04-18T16:27:43.499Z,64.82
2023-04-18T16:30:11.157Z,65.99
2023-04-18T16:32:38.596Z,66.90
2023-04-18T16:35:07.929Z,69.44
2023-04-18T16:37:34.877Z,70.68
2023-04-18T16:40:05.168Z,71.03
2023-04-18T16:42:32.510Z,71.93
2023-04-18T16:45:01.887Z,73.46
2023-04-18T16:47:32.473Z,73.19
2023-04-18T16:49:59.569Z,74.60
2023-04-18T16:52:27.158Z,74.50
2023-04-18T16:54:54.526Z,74.09
2023-04-18T16:57:21.406Z,73.59
2023-04-18T16:59:48.402Z,73.27
2023-04-18T17:02:15.704Z,74.15
2023-04-18T17:04:44.355Z,74.98
2023-04-18T17:07:11.557Z,74.78
2023-04-18T17:09:38.483Z,75.12
2023-04-18T17:12:05.964Z,75.63
2023-04-18T17:14:33.203Z,76.28
2023-04-18T17:17:00.196Z,76.61
2023-04-18T17:19:27.153Z,76.03
2023-04-18T17:21:54.130Z,76.10
2023-04-18T17:24:22.679Z,76.05
2023-04-18T17:26:49.973Z,77.67
2023-04-18T17:29:18.687Z,79.60
2023-04-18T17:31:45.640Z,80.04
2023-04-18T17:34:12.803Z,80.25
2023-04-18T17:36:39.870Z,82.53
2023-04-18T17:39:06.994Z,83.31
2023-04-18T17:41:38.593Z,82.99
2023-04-18T17:44:07.979Z,84.43
2023-04-18T17:46:35.248Z,84.30
2023-04-18T17:49:02.422Z,84.77
2023-04-18T17:51:29.357Z,85.43
2023-04-18T17:53:56.490Z,86.68
2023-04-18T17:56:23.528Z,87.52
2023-04-18T17:58:50.705Z,88.44
2023-04-18T18:01:19.830Z,88.06
2023-04-18T18:03:47.387Z,87.86
2023-04-18T18:06:15.567Z,88.73
2023-04-18T18:08:43.180Z,89.55
2023-04-18T18:11:10.786Z,89.66
2023-04-18T18:13:41.289Z,89.79
2023-04-18T18:16:08.974Z,89.57
2023-04-18T18:18:36.893Z,89.62
2023-04-18T18:21:03.979Z,89.85
2023-04-18T18:23:31.238Z,89.60
2023-04-18T18:25:58.498Z,90.39
2023-04-18T18:28:25.561Z,90.97
2023-04-18T18:30:53.529Z,91.11
2023-04-18T18:33:20.687Z,91.48
2023-04-18T18:35:47.657Z,90.37
2023-04-18T18:38:14.633Z,91.05
2023-04-18T18:40:41.706Z,90.51
2023-04-18T18:43:08.677Z,89.97
2023-04-18T18:45:35.695Z,90.77
2023-04-18T18:48:03.979Z,91.22
2023-04-18T18:50:31.256Z,91.02
2023-04-18T18:52:58.280Z,90.68
2023-04-18T18:55:25.293Z,91.14
2023-04-18T18:57:52.372Z,91.38
2023-04-18T19:00:19.469Z,90.66
2023-04-18T19:02:46.908Z,91.56
2023-04-18T19:05:14.120Z,90.48
2023-04-18T19:07:43.920Z,90.55
2023-04-18T19:10:11.194Z,90.01
2023-04-18T19:12:38.553Z,90.09
2023-04-18T19:15:06.492Z,90.65
2023-04-18T19:17:35.839Z,90.84
2023-04-18T19:20:03.827Z,90.57
2023-04-18T19:22:38.685Z,89.99
2023-04-18T19:25:06.695Z,89.93
2023-04-18T19:27:33.998Z,90.53
2023-04-18T19:30:00.952Z,90.19
2023-04-18T19:32:28.216Z,90.80
2023-04-18T19:34:55.226Z,90.87
2023-04-18T19:37:22.247Z,90.77
2023-04-18T19:39:49.573Z,91.83
2023-04-18T19:42:16.953Z,92.05
2023-04-18T19:44:44.356Z,93.02
2023-04-18T19:47:11.353Z,92.67
2023-04-18T19:49:38.592Z,93.31
2023-04-18T19:52:06.217Z,92.77
2023-04-18T19:54:33.574Z,91.87
2023-04-18T19:57:01.613Z,93.45
2023-04-18T19:59:28.999Z,92.44
2023-04-18T20:01:57.819Z,92.51
2023-04-18T20:04:26.805Z,91.70
2023-04-18T20:06:55.462Z,92.06
2023-04-18T20:09:22.469Z,91.89
2023-04-18T20:11:49.430Z,91.31
2023-04-18T20:14:16.467Z,91.58
2023-04-18T20:16:43.523Z,92.10
2023-04-18T20:19:12.594Z,92.10
2023-04-18T20:21:40.039Z,91.07
2023-04-18T20:24:09.791Z,91.13
2023-04-18T20:26:37.224Z,91.27
2023-04-18T20:29:04.263Z,91.68
2023-04-18T20:31:31.409Z,91.61
2023-04-18T20:33:58.515Z,91.65
2023-04-18T20:36:25.524Z,91.67
2023-04-18T20:38:52.581Z,91.73
2023-04-18T20:41:22.724Z,92.05
2023-04-18T20:43:50.693Z,91.71
2023-04-18T20:46:17.687Z,91.31
2023-04-18T20:48:44.642Z,91.40
2023-04-18T20:51:11.837Z,91.36
2023-04-18T20:53:38.823Z,91.34
2023-04-18T20:56:06.086Z,91.37
2023-04-18T20:58:33.059Z,91.34
2023-04-18T21:01:02.554Z,93.54
2023-04-18T21:03:29.800Z,94.53
2023-04-18T21:05:56.811Z,93.95
2023-04-18T21:08:23.883Z,92.66
2023-04-18T21:10:50.838Z,92.49
2023-04-18T21:13:17.867Z,92.57
2023-04-18T21:15:44.996Z,92.63
2023-04-18T21:18:11.977Z,93.47
2023-04-18T21:20:38.921Z,92.63
2023-04-18T21:23:06.146Z,92.41
2023-04-18T21:25:33.138Z,92.54
2023-04-18T21:28:00.364Z,92.30
2023-04-18T21:30:27.453Z,92.04
2023-04-18T21:32:54.487Z,92.47
2023-04-18T21:35:23.346Z,91.75
2023-04-18T21:37:51.744Z,91.53
2023-04-18T21:40:18.937Z,91.44
2023-04-18T21:42:46.872Z,90.97
2023-04-18T21:45:15.098Z,90.67
2023-04-18T21:47:42.130Z,90.52
2023-04-18T21:50:10.098Z,90.79
2023-04-18T21:52:37.484Z,91.49
2023-04-18T21:55:05.142Z,91.79
2023-04-18T21:57:33.555Z,92.35
2023-04-18T22:00:00.523Z,92.44
2023-04-18T22:02:27.962Z,92.13
2023-04-18T22:04:55.159Z,92.50
2023-04-18T22:07:24.678Z,92.04
2023-04-18T22:09:51.887Z,92.20
2023-04-18T22:12:19.038Z,92.64
2023-04-18T22:14:48.463Z,92.59
2023-04-18T22:17:15.974Z,92.25
2023-04-18T22:19:44.616Z,92.23
2023-04-18T22:22:12.273Z,90.80
2023-04-18T22:24:39.563Z,90.51
2023-04-18T22:27:07.006Z,90.31
2023-04-18T22:29:34.032Z,90.40
2023-04-18T22:32:00.997Z,91.24
2023-04-18T22:34:28.073Z,91.38
2023-04-18T22:36:55.087Z,90.65
2023-04-18T22:39:22.046Z,90.58
2023-04-18T22:41:49.044Z,90.06
2023-04-18T22:44:16.265Z,90.25
2023-04-18T22:46:43.586Z,89.82
2023-04-18T22:49:10.898Z,90.69
2023-04-18T22:51:38.265Z,89.88
2023-04-18T22:54:05.502Z,89.77
2023-04-18T22:56:32.529Z,89.67
2023-04-18T22:58:59.437Z,87.56
2023-04-18T23:01:26.353Z,87.13
2023-04-18T23:03:53.683Z,87.15
2023-04-18T23:06:21.074Z,88.06
2023-04-18T23:08:48.047Z,88.23
2023-04-18T23:11:15.878Z,88.72
2023-04-18T23:13:42.872Z,89.44
2023-04-18T23:16:09.800Z,89.02
2023-04-18T23:18:36.788Z,89.42
2023-04-18T23:21:03.969Z,89.12
2023-04-18T23:23:30.971Z,89.45
2023-04-18T23:25:58.078Z,90.37
2023-04-18T23:28:25.349Z,90.53
2023-04-18T23:30:52.698Z,89.45
2023-04-18T23:33:19.598Z,89.48
2023-04-18T23:35:46.602Z,88.38
2023-04-18T23:38:13.514Z,88.98
2023-04-18T23:40:40.502Z,88.51
2023-04-18T23:43:07.379Z,88.43
2023-04-18T23:45:34.353Z,87.90
2023-04-18T23:48:01.434Z,88.72
2023-04-18T23:50:28.523Z,88.60
2023-04-18T23:52:55.587Z,88.68
2023-04-18T23:55:22.542Z,88.93
2023-04-18T23:57:49.600Z,88.98
